Ittre, Belgium
Current Conditions -  °F | °C
As of 11:50 PM on Saturday 25 Oct 2014 (Local Time) from EBCI Reporting Station
Few Clouds Few Clouds  
Wind Chill: 50°   Ceiling: Unl
Heat Index: 50°   Visibility: 6mi
Dew Point: 48°   Wind: 7mph
Humidity: 94%   Direction: 210°SSW
Pressure: 30.24"   Gusts: NA
Location:  50.64°N, 4.26°E
Report Text: EBCI 252150Z 21006KT 9999 FEW020 10/09 Q1024 NOSIG
Loading
Personal Weather Stations






























Interactive Weather Map
Tropical Storm Tracking
New forecast layout! Learn more

10-Day Weather Forecast

Advertisements
Track Severe Weather on mobile